createdAt,value
2023-04-22T00:03:01.781Z,11.71
2023-04-22T00:09:04.864Z,11.46
2023-04-22T00:15:10.666Z,11.13
2023-04-22T00:17:57.095Z,11.09
2023-04-22T00:20:51.656Z,11.12
2023-04-22T00:23:37.972Z,11.06
2023-04-22T00:26:30.537Z,11.13
2023-04-22T00:29:23.380Z,11.29
2023-04-22T00:32:46.388Z,11.46
2023-04-22T00:35:39.307Z,11.55
2023-04-22T00:38:57.694Z,11.61
2023-04-22T00:41:50.567Z,11.55
2023-04-22T00:44:53.579Z,11.58
2023-04-22T00:47:40.431Z,11.54
2023-04-22T00:53:43.522Z,11.60
2023-04-22T00:59:52.755Z,11.66
2023-04-22T01:06:01.713Z,11.63
2023-04-22T01:12:12.086Z,11.46
2023-04-22T01:15:05.784Z,11.36
2023-04-22T01:17:54.587Z,11.35
2023-04-22T01:20:47.429Z,11.34
2023-04-22T01:23:41.453Z,11.17
2023-04-22T01:26:34.386Z,10.95
2023-04-22T01:29:27.570Z,10.74
2023-04-22T01:32:21.122Z,10.67
2023-04-22T01:38:51.071Z,10.90
2023-04-22T01:41:58.547Z,10.91
2023-04-22T01:44:50.514Z,10.89
2023-04-22T01:51:31.641Z,10.92
2023-04-22T01:54:38.400Z,10.99
2023-04-22T01:57:32.669Z,11.08
2023-04-22T02:04:12.401Z,11.18
2023-04-22T02:07:20.631Z,11.19
2023-04-22T02:10:13.100Z,11.07
2023-04-22T02:16:27.955Z,10.91
2023-04-22T02:22:45.657Z,10.92
2023-04-22T02:28:47.223Z,10.87
2023-04-22T02:34:58.062Z,10.80
2023-04-22T02:41:06.721Z,10.77
2023-04-22T02:47:04.845Z,10.79
2023-04-22T02:49:58.827Z,10.85
2023-04-22T02:52:58.989Z,10.91
2023-04-22T02:55:52.317Z,10.94
2023-04-22T02:58:45.416Z,10.96
2023-04-22T03:01:38.197Z,10.98
2023-04-22T03:04:35.696Z,11.00
2023-04-22T03:07:29.484Z,11.05
2023-04-22T03:10:59.622Z,11.10
2023-04-22T03:13:52.438Z,11.23
2023-04-22T03:17:22.702Z,11.36
2023-04-22T03:20:16.554Z,11.78
2023-04-22T03:23:24.702Z,12.12
2023-04-22T03:26:17.745Z,12.32
2023-04-22T03:32:56.883Z,12.95
2023-04-22T03:36:09.303Z,13.36
2023-04-22T03:39:02.480Z,13.52
2023-04-22T03:45:19.177Z,14.02
2023-04-22T03:51:55.880Z,14.25
2023-04-22T03:55:07.919Z,14.38
2023-04-22T03:57:57.595Z,14.51
2023-04-22T04:04:38.787Z,14.69
2023-04-22T04:07:44.597Z,14.78
2023-04-22T04:10:38.594Z,14.81
2023-04-22T04:16:52.677Z,14.98
2023-04-22T04:23:38.854Z,15.23
2023-04-22T04:26:48.871Z,15.30
2023-04-22T04:29:46.044Z,15.26
2023-04-22T04:35:54.206Z,15.44
2023-04-22T04:42:16.674Z,15.62
2023-04-22T04:48:38.455Z,15.55
2023-04-22T04:54:55.367Z,15.51
2023-04-22T05:00:54.555Z,15.66
2023-04-22T05:06:59.703Z,15.71
2023-04-22T05:13:09.723Z,15.68
2023-04-22T05:19:11.050Z,15.39
2023-04-22T05:22:04.218Z,15.41
2023-04-22T05:25:07.465Z,15.36
2023-04-22T05:28:00.219Z,15.32
2023-04-22T05:30:59.242Z,15.36
2023-04-22T05:33:54.012Z,15.36
2023-04-22T05:36:48.852Z,15.30
2023-04-22T05:39:41.660Z,15.37
2023-04-22T05:42:51.723Z,15.88
2023-04-22T05:45:43.675Z,16.16
2023-04-22T05:52:25.720Z,16.74
2023-04-22T05:55:52.538Z,17.12
2023-04-22T05:58:46.011Z,17.38
2023-04-22T06:02:08.341Z,17.63
2023-04-22T06:05:01.953Z,18.04
2023-04-22T06:11:24.743Z,18.35
2023-04-22T06:14:34.798Z,18.62
2023-04-22T06:17:24.516Z,18.83
2023-04-22T06:23:39.590Z,19.21
2023-04-22T06:29:41.156Z,19.53
2023-04-22T06:35:46.939Z,20.08
2023-04-22T06:41:55.848Z,20.60
2023-04-22T06:48:27.241Z,20.23
2023-04-22T06:54:54.770Z,19.93
2023-04-22T07:01:03.618Z,19.65
2023-04-22T07:07:14.188Z,19.98
2023-04-22T07:13:15.730Z,20.01
2023-04-22T07:20:08.369Z,20.89
2023-04-22T07:26:19.114Z,22.56
2023-04-22T07:32:27.758Z,24.22
2023-04-22T07:35:20.536Z,23.98
2023-04-22T07:38:14.511Z,24.44
2023-04-22T07:41:07.883Z,24.51
2023-04-22T07:44:02.977Z,24.21
2023-04-22T07:46:55.428Z,24.58
2023-04-22T07:49:48.252Z,24.57
2023-04-22T07:52:40.223Z,24.89
2023-04-22T07:59:03.692Z,25.68
2023-04-22T08:02:33.871Z,25.04
2023-04-22T08:05:26.186Z,24.82
2023-04-22T08:08:55.661Z,24.53
2023-04-22T08:11:48.397Z,24.78
2023-04-22T08:14:58.071Z,24.96
2023-04-22T08:17:50.071Z,25.66
2023-04-22T08:24:28.492Z,25.92
2023-04-22T08:27:38.934Z,25.66
2023-04-22T08:30:28.289Z,25.98
2023-04-22T08:36:27.696Z,26.94
2023-04-22T08:42:32.800Z,25.89
2023-04-22T08:48:38.100Z,27.15
2023-04-22T08:54:43.786Z,27.45
2023-04-22T08:57:36.964Z,27.74
2023-04-22T09:00:36.063Z,28.22
2023-04-22T09:03:28.574Z,28.31
2023-04-22T09:06:22.068Z,28.46
2023-04-22T09:09:16.690Z,28.64
2023-04-22T09:12:09.700Z,28.55
2023-04-22T09:15:03.991Z,28.06
2023-04-22T09:18:33.668Z,27.72
2023-04-22T09:21:27.776Z,27.64
2023-04-22T09:27:51.817Z,26.74
2023-04-22T09:31:21.737Z,26.55
2023-04-22T09:34:14.553Z,26.11
2023-04-22T09:37:24.063Z,26.74
2023-04-22T09:40:16.293Z,27.04
2023-04-22T09:46:32.111Z,26.93
2023-04-22T09:53:11.747Z,26.76
2023-04-22T09:56:05.333Z,27.00
2023-04-22T10:02:13.269Z,27.48
2023-04-22T10:05:07.059Z,27.92
2023-04-22T10:07:59.641Z,28.33
2023-04-22T10:10:52.965Z,27.80
2023-04-22T10:13:45.290Z,26.78
2023-04-22T10:20:24.901Z,26.81
2023-04-22T10:23:32.720Z,26.85
2023-04-22T10:26:40.384Z,26.69
2023-04-22T10:30:10.667Z,26.62
2023-04-22T10:33:36.472Z,26.78
2023-04-22T10:36:33.918Z,26.56
2023-04-22T10:39:27.329Z,26.07
2023-04-22T10:42:21.762Z,26.32
2023-04-22T10:45:15.652Z,26.38
2023-04-22T10:48:08.329Z,26.48
2023-04-22T10:51:01.598Z,26.31
2023-04-22T10:53:55.838Z,26.07
2023-04-22T10:57:01.767Z,26.01
2023-04-22T10:59:56.380Z,25.45
2023-04-22T11:05:46.683Z,26.32
2023-04-22T11:12:35.555Z,26.85
2023-04-22T11:15:30.157Z,27.20
2023-04-22T11:21:32.488Z,26.52
2023-04-22T11:24:25.674Z,26.47
2023-04-22T11:27:12.984Z,25.94
2023-04-22T11:30:02.132Z,25.81
2023-04-22T11:32:56.768Z,26.22
2023-04-22T11:35:51.430Z,26.16
2023-04-22T11:38:37.571Z,26.49
2023-04-22T11:41:25.931Z,26.83
2023-04-22T11:44:14.842Z,27.14
2023-04-22T11:47:01.975Z,27.36
2023-04-22T11:49:56.920Z,27.23
2023-04-22T11:52:52.259Z,27.76
2023-04-22T11:55:39.572Z,27.90
2023-04-22T11:58:27.940Z,27.90
2023-04-22T12:01:15.258Z,27.85
2023-04-22T12:04:01.857Z,27.35
2023-04-22T12:06:48.179Z,27.07
2023-04-22T12:09:34.727Z,27.17
2023-04-22T12:15:18.748Z,28.01
2023-04-22T12:18:07.126Z,28.14
2023-04-22T12:20:53.009Z,28.50
2023-04-22T12:23:43.326Z,28.18
2023-04-22T12:26:29.171Z,27.83
2023-04-22T12:29:15.356Z,27.64
2023-04-22T12:32:01.571Z,27.99
2023-04-22T12:34:49.622Z,28.26
2023-04-22T12:37:35.900Z,28.33
2023-04-22T12:40:21.869Z,28.31
2023-04-22T12:43:08.336Z,28.67
2023-04-22T12:45:54.190Z,28.81
2023-04-22T12:49:10.730Z,28.45
2023-04-22T12:51:58.320Z,28.36
2023-04-22T12:57:59.432Z,27.87
2023-04-22T13:00:45.542Z,27.78
2023-04-22T13:03:31.866Z,27.43
2023-04-22T13:06:17.998Z,27.34
2023-04-22T13:09:06.068Z,27.65
2023-04-22T13:11:52.294Z,28.12
2023-04-22T13:17:46.602Z,28.59
2023-04-22T13:23:49.820Z,28.77
2023-04-22T13:29:50.187Z,28.69
2023-04-22T13:32:36.246Z,28.40
2023-04-22T13:35:22.334Z,28.59
2023-04-22T13:38:08.312Z,28.29
2023-04-22T13:40:54.304Z,28.02
2023-04-22T13:43:40.493Z,28.00
2023-04-22T13:46:28.038Z,27.69
2023-04-22T13:49:14.330Z,27.09
2023-04-22T13:52:00.531Z,27.06
2023-04-22T13:54:46.532Z,27.30
2023-04-22T13:57:32.339Z,26.87
2023-04-22T14:00:43.602Z,26.36
2023-04-22T14:03:31.212Z,26.31
2023-04-22T14:09:36.486Z,26.80
2023-04-22T14:15:39.594Z,26.50
2023-04-22T14:18:25.790Z,26.42
2023-04-22T14:21:13.593Z,26.34
2023-04-22T14:23:59.567Z,26.44
2023-04-22T14:26:45.699Z,25.82
2023-04-22T14:29:31.828Z,25.71
2023-04-22T14:32:18.729Z,26.27
2023-04-22T14:38:11.672Z,27.35
2023-04-22T14:40:57.752Z,27.56
2023-04-22T14:43:43.470Z,27.13
2023-04-22T14:46:30.405Z,26.91
2023-04-22T14:49:41.861Z,26.50
2023-04-22T14:52:27.937Z,26.58
2023-04-22T14:55:22.504Z,26.79
2023-04-22T14:58:09.155Z,26.70
2023-04-22T15:00:55.294Z,26.53
2023-04-22T15:03:41.471Z,26.80
2023-04-22T15:09:25.276Z,27.04
2023-04-22T15:12:12.590Z,27.34
2023-04-22T15:14:58.534Z,27.37
2023-04-22T15:17:45.393Z,27.61
2023-04-22T15:20:31.229Z,27.88
2023-04-22T15:23:17.368Z,27.81
2023-04-22T15:26:03.340Z,27.76
2023-04-22T15:32:07.510Z,27.36
2023-04-22T15:38:10.331Z,26.06
2023-04-22T15:40:56.296Z,25.82
2023-04-22T15:43:42.441Z,25.52
2023-04-22T15:46:36.174Z,25.21
2023-04-22T15:49:24.816Z,24.97
2023-04-22T15:55:20.626Z,24.73
2023-04-22T15:58:06.455Z,24.73
2023-04-22T16:00:52.564Z,24.68
2023-04-22T16:06:50.263Z,24.67
2023-04-22T16:12:52.903Z,24.32
2023-04-22T16:15:39.216Z,24.10
2023-04-22T16:18:26.471Z,24.04
2023-04-22T16:21:12.682Z,23.91
2023-04-22T16:24:00.737Z,23.59
2023-04-22T16:26:47.145Z,23.09
2023-04-22T16:32:49.980Z,22.34
2023-04-22T16:35:36.534Z,21.74
2023-04-22T16:38:22.443Z,21.04
2023-04-22T16:41:11.486Z,20.64
2023-04-22T16:43:57.974Z,20.16
2023-04-22T16:46:43.982Z,19.84
2023-04-22T16:52:41.336Z,18.91
2023-04-22T16:55:27.601Z,18.62
2023-04-22T16:58:14.933Z,18.45
2023-04-22T17:01:00.850Z,18.30
2023-04-22T17:03:47.315Z,18.02
2023-04-22T17:06:33.508Z,17.81
2023-04-22T17:09:19.743Z,17.67
2023-04-22T17:12:06.058Z,17.70
2023-04-22T17:14:53.478Z,17.75
2023-04-22T17:17:39.534Z,17.73
2023-04-22T17:20:25.724Z,17.74
2023-04-22T17:23:11.724Z,17.86
2023-04-22T17:26:20.679Z,18.02
2023-04-22T17:29:07.285Z,18.08
2023-04-22T17:35:09.084Z,17.96
2023-04-22T17:41:11.753Z,18.05
2023-04-22T17:43:59.193Z,18.21
2023-04-22T17:46:45.756Z,18.31
2023-04-22T17:49:32.120Z,18.39
2023-04-22T17:52:19.621Z,18.42
2023-04-22T17:55:06.451Z,18.47
2023-04-22T17:57:52.342Z,18.51
2023-04-22T18:00:38.725Z,18.51
2023-04-22T18:03:25.013Z,18.43
2023-04-22T18:06:11.260Z,18.41
2023-04-22T18:08:58.563Z,18.42
2023-04-22T18:11:44.739Z,18.36
2023-04-22T18:14:30.790Z,18.29
2023-04-22T18:17:19.950Z,18.18
2023-04-22T18:20:17.573Z,18.13
2023-04-22T18:23:04.538Z,18.05
2023-04-22T18:25:53.796Z,17.96
2023-04-22T18:28:40.995Z,17.87
2023-04-22T18:31:27.273Z,17.81
2023-04-22T18:34:15.499Z,17.80
2023-04-22T18:37:01.279Z,17.76
2023-04-22T18:39:47.409Z,17.72
2023-04-22T18:42:34.609Z,17.69
2023-04-22T18:45:22.769Z,17.68
2023-04-22T18:48:08.810Z,17.68
2023-04-22T18:50:54.974Z,17.69
2023-04-22T18:53:40.935Z,17.72
2023-04-22T18:56:27.062Z,17.71
2023-04-22T18:59:16.199Z,17.75
2023-04-22T19:05:21.837Z,17.77
2023-04-22T19:08:07.653Z,17.79
2023-04-22T19:10:53.853Z,17.83
2023-04-22T19:13:39.918Z,17.88
2023-04-22T19:19:31.253Z,17.82
2023-04-22T19:25:34.021Z,17.77
2023-04-22T19:28:19.806Z,17.77
2023-04-22T19:31:06.135Z,17.82
2023-04-22T19:33:52.026Z,17.86
2023-04-22T19:36:39.406Z,17.84
2023-04-22T19:39:25.301Z,17.76
2023-04-22T19:42:11.613Z,17.74
2023-04-22T19:48:16.937Z,17.35
2023-04-22T19:51:03.518Z,17.36
2023-04-22T19:53:51.414Z,17.42
2023-04-22T19:56:37.856Z,17.45
2023-04-22T19:59:23.905Z,17.47
2023-04-22T20:02:10.497Z,17.42
2023-04-22T20:04:57.156Z,17.33
2023-04-22T20:07:44.209Z,17.26
2023-04-22T20:10:31.778Z,17.38
2023-04-22T20:13:18.383Z,17.19
2023-04-22T20:16:04.958Z,17.09
2023-04-22T20:18:52.102Z,17.09
2023-04-22T20:21:39.738Z,17.00
2023-04-22T20:24:27.676Z,16.90
2023-04-22T20:27:16.986Z,16.78
2023-04-22T20:30:03.388Z,16.65
2023-04-22T20:32:50.116Z,16.66
2023-04-22T20:35:36.543Z,16.67
2023-04-22T20:38:23.241Z,16.73
2023-04-22T20:41:10.094Z,16.71
2023-04-22T20:43:57.533Z,16.77
2023-04-22T20:46:43.518Z,16.79
2023-04-22T20:49:29.832Z,16.73
2023-04-22T20:52:16.284Z,16.75
2023-04-22T20:55:03.338Z,16.76
2023-04-22T20:57:49.233Z,16.71
2023-04-22T21:00:36.687Z,16.76
2023-04-22T21:03:23.384Z,16.76
2023-04-22T21:06:10.255Z,16.75
2023-04-22T21:08:56.451Z,16.76
2023-04-22T21:14:49.877Z,16.69
2023-04-22T21:20:53.836Z,16.58
2023-04-22T21:23:41.039Z,16.52
2023-04-22T21:29:48.503Z,16.51
2023-04-22T21:32:40.286Z,16.51
2023-04-22T21:35:26.211Z,16.47
2023-04-22T21:38:15.962Z,16.56
2023-04-22T21:41:02.149Z,16.52
2023-04-22T21:43:48.545Z,16.55
2023-04-22T21:49:51.276Z,16.48
2023-04-22T21:52:37.515Z,16.54
2023-04-22T21:55:25.035Z,16.51
2023-04-22T21:58:10.960Z,16.48
2023-04-22T22:04:02.712Z,16.44
2023-04-22T22:10:01.930Z,16.24
2023-04-22T22:12:50.017Z,16.15
2023-04-22T22:15:36.233Z,16.08
2023-04-22T22:18:22.150Z,16.17
2023-04-22T22:21:08.358Z,16.17
2023-04-22T22:23:54.639Z,16.07
2023-04-22T22:26:42.663Z,16.05
2023-04-22T22:29:29.970Z,16.00
2023-04-22T22:32:16.133Z,16.05
2023-04-22T22:35:02.288Z,16.15
2023-04-22T22:37:48.451Z,16.14
2023-04-22T22:40:34.328Z,16.19
2023-04-22T22:43:20.726Z,16.12
2023-04-22T22:46:08.026Z,16.14
2023-04-22T22:48:54.457Z,16.08
2023-04-22T22:51:40.867Z,16.08
2023-04-22T22:54:26.994Z,16.03
2023-04-22T23:00:48.595Z,16.33
2023-04-22T23:06:48.928Z,16.21
2023-04-22T23:09:35.306Z,16.18
2023-04-22T23:12:25.074Z,15.88
2023-04-22T23:15:12.286Z,15.83
2023-04-22T23:17:58.670Z,15.81
2023-04-22T23:20:45.079Z,15.71
2023-04-22T23:23:32.600Z,15.53
2023-04-22T23:26:19.407Z,15.32
2023-04-22T23:29:09.366Z,15.33
2023-04-22T23:31:56.576Z,15.30
2023-04-22T23:34:46.224Z,15.27
2023-04-22T23:37:35.896Z,15.27
2023-04-22T23:40:23.282Z,15.34
2023-04-22T23:46:18.904Z,15.23
2023-04-22T23:49:05.032Z,15.21
2023-04-22T23:51:51.432Z,15.17
2023-04-22T23:54:38.147Z,15.15
2023-04-22T23:57:36.936Z,15.12
